createdAt,value
2022-12-05T00:01:18.578Z,4.62
2022-12-05T00:03:46.320Z,4.64
2022-12-05T00:06:13.067Z,4.59
2022-12-05T00:08:41.429Z,4.60
2022-12-05T00:11:13.635Z,4.52
2022-12-05T00:13:41.191Z,4.48
2022-12-05T00:16:09.854Z,4.51
2022-12-05T00:18:37.239Z,4.55
2022-12-05T00:21:06.625Z,4.56
2022-12-05T00:23:33.672Z,4.60
2022-12-05T00:26:04.621Z,4.48
2022-12-05T00:28:32.371Z,4.35
2022-12-05T00:31:02.922Z,4.37
2022-12-05T00:33:29.849Z,4.37
2022-12-05T00:36:02.575Z,4.26
2022-12-05T00:38:29.421Z,4.21
2022-12-05T00:40:56.218Z,4.19
2022-12-05T00:43:24.664Z,4.20
2022-12-05T00:45:51.455Z,4.12
2022-12-05T00:48:18.346Z,3.98
2022-12-05T00:50:45.294Z,3.96
2022-12-05T00:53:12.048Z,4.05
2022-12-05T00:55:38.859Z,4.19
2022-12-05T00:58:05.638Z,4.30
2022-12-05T01:00:34.012Z,4.31
2022-12-05T01:03:01.137Z,4.27
2022-12-05T01:05:27.925Z,4.30
2022-12-05T01:07:54.824Z,4.34
2022-12-05T01:10:21.613Z,4.32
2022-12-05T01:12:48.593Z,4.38
2022-12-05T01:15:15.372Z,4.43
2022-12-05T01:17:43.772Z,4.42
2022-12-05T01:20:11.454Z,4.42
2022-12-05T01:22:38.339Z,4.47
2022-12-05T01:25:06.646Z,4.43
2022-12-05T01:27:33.432Z,4.22
2022-12-05T01:30:00.315Z,4.06
2022-12-05T01:32:27.286Z,3.93
2022-12-05T01:34:56.083Z,3.85
2022-12-05T01:37:23.087Z,3.93
2022-12-05T01:39:49.876Z,3.73
2022-12-05T01:42:20.541Z,3.69
2022-12-05T01:45:13.620Z,3.72
2022-12-05T01:47:41.980Z,3.64
2022-12-05T01:50:12.637Z,3.65
2022-12-05T01:52:40.682Z,3.61
2022-12-05T01:55:14.417Z,3.59
2022-12-05T01:57:42.055Z,3.67
2022-12-05T02:00:13.676Z,3.76
2022-12-05T02:02:46.584Z,3.80
2022-12-05T02:05:21.121Z,3.85
2022-12-05T02:07:48.571Z,3.70
2022-12-05T02:10:15.819Z,3.59
2022-12-05T02:12:45.048Z,3.61
2022-12-05T02:15:35.132Z,3.58
2022-12-05T02:18:23.586Z,3.61
2022-12-05T02:21:22.556Z,3.53
2022-12-05T02:24:27.633Z,3.43
2022-12-05T02:27:27.485Z,3.39
2022-12-05T02:30:07.071Z,3.27
2022-12-05T02:33:07.440Z,3.24
2022-12-05T02:35:47.054Z,3.28
2022-12-05T02:38:28.046Z,3.33
2022-12-05T02:41:11.822Z,3.30
2022-12-05T02:43:47.040Z,3.27
2022-12-05T02:46:22.074Z,3.27
2022-12-05T02:48:56.286Z,3.29
2022-12-05T02:51:29.166Z,3.28
2022-12-05T02:54:02.525Z,3.24
2022-12-05T02:56:33.135Z,3.24
2022-12-05T02:59:01.488Z,3.27
2022-12-05T03:01:32.389Z,3.26
2022-12-05T03:04:04.106Z,3.24
2022-12-05T03:06:36.760Z,3.29
2022-12-05T03:09:08.785Z,3.36
2022-12-05T03:11:42.308Z,3.34
2022-12-05T03:14:19.084Z,3.35
2022-12-05T03:16:51.535Z,3.38
2022-12-05T03:19:26.208Z,3.39
2022-12-05T03:22:01.037Z,3.45
2022-12-05T03:24:30.415Z,3.40
2022-12-05T03:27:11.012Z,3.42
2022-12-05T03:29:49.111Z,3.44
2022-12-05T03:32:27.297Z,3.52
2022-12-05T03:35:06.548Z,3.53
2022-12-05T03:37:46.547Z,3.43
2022-12-05T03:40:31.633Z,3.42
2022-12-05T03:43:08.318Z,3.47
2022-12-05T03:45:44.843Z,3.61
2022-12-05T03:48:25.763Z,3.73
2022-12-05T03:50:54.101Z,3.82
2022-12-05T03:53:28.159Z,3.75
2022-12-05T03:56:05.265Z,3.85
2022-12-05T03:58:43.278Z,3.97
2022-12-05T04:01:16.045Z,4.11
2022-12-05T04:03:50.572Z,4.21
2022-12-05T04:06:26.656Z,4.26
2022-12-05T04:08:59.309Z,4.31
2022-12-05T04:11:33.058Z,4.30
2022-12-05T04:14:08.537Z,4.28
2022-12-05T04:16:42.744Z,4.30
2022-12-05T04:19:19.151Z,4.35
2022-12-05T04:21:54.428Z,4.41
2022-12-05T04:24:26.811Z,4.26
2022-12-05T04:27:10.150Z,4.19
2022-12-05T04:29:50.680Z,4.17
2022-12-05T04:32:25.815Z,4.24
2022-12-05T04:35:05.600Z,4.22
2022-12-05T04:37:38.325Z,4.12
2022-12-05T04:40:17.863Z,4.10
2022-12-05T04:42:48.678Z,4.15
2022-12-05T04:45:20.463Z,4.16
2022-12-05T04:47:54.632Z,4.17
2022-12-05T04:50:26.705Z,4.21
2022-12-05T04:52:59.176Z,4.00
2022-12-05T04:55:27.144Z,3.85
2022-12-05T04:58:06.121Z,3.83
2022-12-05T05:00:45.532Z,3.86
2022-12-05T05:03:19.518Z,3.89
2022-12-05T05:05:54.251Z,3.97
2022-12-05T05:08:25.469Z,4.09
2022-12-05T05:11:07.798Z,4.21
2022-12-05T05:13:34.906Z,4.20
2022-12-05T05:16:01.722Z,4.29
2022-12-05T05:18:28.591Z,4.21
2022-12-05T05:20:57.432Z,4.19
2022-12-05T05:23:24.194Z,4.29
2022-12-05T05:25:55.555Z,4.36
2022-12-05T05:28:23.315Z,4.40
2022-12-05T05:30:50.123Z,4.30
2022-12-05T05:33:16.930Z,4.25
2022-12-05T05:35:43.700Z,4.19
2022-12-05T05:38:12.411Z,4.13
2022-12-05T05:40:39.166Z,4.17
2022-12-05T05:43:06.226Z,4.23
2022-12-05T05:45:33.017Z,4.26
2022-12-05T05:48:00.295Z,4.08
2022-12-05T05:50:27.169Z,4.15
2022-12-05T05:52:54.945Z,4.13
2022-12-05T05:55:23.038Z,4.08
2022-12-05T05:57:49.991Z,4.19
2022-12-05T06:00:18.009Z,4.10
2022-12-05T06:02:44.954Z,4.01
2022-12-05T06:05:11.886Z,3.82
2022-12-05T06:07:39.235Z,3.72
2022-12-05T06:10:07.802Z,3.74
2022-12-05T06:12:35.923Z,3.76
2022-12-05T06:15:04.031Z,3.78
2022-12-05T06:17:30.988Z,3.75
2022-12-05T06:19:58.090Z,3.80
2022-12-05T06:22:25.760Z,3.88
2022-12-05T06:24:53.886Z,3.85
2022-12-05T06:27:21.127Z,3.86
2022-12-05T06:29:49.382Z,3.93
2022-12-05T06:32:16.726Z,3.96
2022-12-05T06:34:43.443Z,4.01
2022-12-05T06:37:10.289Z,4.13
2022-12-05T06:39:37.471Z,4.21
2022-12-05T06:42:04.873Z,4.24
2022-12-05T06:44:32.025Z,4.16
2022-12-05T06:47:00.374Z,4.14
2022-12-05T06:49:31.622Z,4.12
2022-12-05T06:52:00.583Z,4.19
2022-12-05T06:54:27.501Z,4.25
2022-12-05T06:56:54.523Z,4.30
2022-12-05T06:59:21.391Z,4.33
2022-12-05T07:01:48.620Z,4.33
2022-12-05T07:04:19.750Z,4.31
2022-12-05T07:06:50.796Z,4.17
2022-12-05T07:09:20.207Z,4.03
2022-12-05T07:11:48.327Z,3.95
2022-12-05T07:14:39.008Z,4.06
2022-12-05T07:17:02.328Z,4.19
2022-12-05T07:19:30.809Z,4.25
2022-12-05T07:21:57.626Z,4.33
2022-12-05T07:24:24.411Z,4.22
2022-12-05T07:26:51.256Z,4.02
2022-12-05T07:29:18.317Z,3.98
2022-12-05T07:31:45.388Z,4.08
2022-12-05T07:34:12.447Z,4.22
2022-12-05T07:36:40.846Z,4.28
2022-12-05T07:39:07.830Z,4.34
2022-12-05T07:41:34.844Z,4.43
2022-12-05T07:44:06.567Z,4.53
2022-12-05T07:46:33.362Z,4.66
2022-12-05T07:49:00.117Z,4.74
2022-12-05T07:51:27.100Z,4.82
2022-12-05T07:53:55.588Z,4.86
2022-12-05T07:56:22.569Z,4.78
2022-12-05T07:58:50.847Z,4.85
2022-12-05T08:01:20.849Z,4.93
2022-12-05T08:03:48.747Z,4.91
2022-12-05T08:06:20.089Z,4.87
2022-12-05T08:08:48.252Z,4.79
2022-12-05T08:11:20.037Z,4.73
2022-12-05T08:13:48.445Z,4.81
2022-12-05T08:16:18.738Z,4.88
2022-12-05T08:18:46.484Z,5.00
2022-12-05T08:21:16.288Z,4.85
2022-12-05T08:23:44.869Z,4.60
2022-12-05T08:26:17.496Z,4.49
2022-12-05T08:28:44.988Z,4.37
2022-12-05T08:31:14.753Z,4.47
2022-12-05T08:33:42.544Z,4.63
2022-12-05T08:36:12.309Z,4.77
2022-12-05T08:38:39.876Z,4.73
2022-12-05T08:41:09.917Z,4.60
2022-12-05T08:43:38.676Z,4.60
2022-12-05T08:46:06.712Z,4.52
2022-12-05T08:48:35.606Z,4.57
2022-12-05T08:51:06.179Z,4.58
2022-12-05T08:53:35.081Z,4.65
2022-12-05T08:56:07.107Z,4.55
2022-12-05T08:58:34.504Z,4.53
2022-12-05T09:01:07.293Z,4.54
2022-12-05T09:03:34.527Z,4.64
2022-12-05T09:06:11.138Z,4.56
2022-12-05T09:08:39.165Z,4.73
2022-12-05T09:11:07.193Z,4.81
2022-12-05T09:13:35.372Z,4.78
2022-12-05T09:16:07.944Z,4.58
2022-12-05T09:18:35.470Z,4.59
2022-12-05T09:21:06.377Z,4.60
2022-12-05T09:23:33.279Z,4.62
2022-12-05T09:26:00.271Z,4.67
2022-12-05T09:28:27.331Z,4.74
2022-12-05T09:30:58.148Z,4.77
2022-12-05T09:33:26.284Z,4.83
2022-12-05T09:35:53.125Z,4.91
2022-12-05T09:38:19.977Z,4.93
2022-12-05T09:40:58.987Z,4.97
2022-12-05T09:43:37.001Z,4.92
2022-12-05T09:46:17.958Z,4.89
2022-12-05T09:48:47.786Z,4.91
2022-12-05T09:51:15.178Z,4.85
2022-12-05T09:53:44.991Z,4.77
2022-12-05T09:56:23.641Z,4.94
2022-12-05T09:58:53.159Z,5.12
2022-12-05T10:01:36.664Z,5.28
2022-12-05T10:04:27.438Z,5.14
2022-12-05T10:07:07.005Z,5.29
2022-12-05T10:09:59.344Z,5.48
2022-12-05T10:12:56.177Z,5.50
2022-12-05T10:15:33.848Z,5.49
2022-12-05T10:18:09.929Z,5.48
2022-12-05T10:20:47.781Z,5.55
2022-12-05T10:23:49.323Z,5.64
2022-12-05T10:26:16.406Z,5.53
2022-12-05T10:28:53.400Z,5.55
2022-12-05T10:31:30.189Z,5.57
2022-12-05T10:34:08.989Z,5.61
2022-12-05T10:36:37.130Z,5.70
2022-12-05T10:39:09.924Z,5.63
2022-12-05T10:41:38.671Z,5.60
2022-12-05T10:44:05.863Z,5.44
2022-12-05T10:46:33.247Z,5.52
2022-12-05T10:49:00.081Z,5.73
2022-12-05T10:51:34.049Z,5.83
2022-12-05T10:54:19.788Z,5.80
2022-12-05T10:56:49.639Z,5.79
2022-12-05T10:59:19.876Z,5.95
2022-12-05T11:01:51.482Z,6.03
2022-12-05T11:04:30.302Z,6.11
2022-12-05T11:07:01.240Z,6.21
2022-12-05T11:09:33.010Z,6.07
2022-12-05T11:12:19.284Z,5.77
2022-12-05T11:15:03.363Z,5.79
2022-12-05T11:17:35.016Z,5.81
2022-12-05T11:20:03.719Z,5.74
2022-12-05T11:22:34.117Z,5.69
2022-12-05T11:25:25.323Z,5.65
2022-12-05T11:27:54.197Z,5.74
2022-12-05T11:30:26.318Z,5.67
2022-12-05T11:33:12.402Z,5.77
2022-12-05T11:35:40.175Z,5.90
2022-12-05T11:38:11.138Z,5.98
2022-12-05T11:40:52.875Z,6.10
2022-12-05T11:43:48.332Z,6.22
2022-12-05T11:46:34.096Z,6.36
2022-12-05T11:49:27.664Z,6.50
2022-12-05T11:52:16.101Z,6.55
2022-12-05T11:55:05.005Z,6.51
2022-12-05T11:58:03.385Z,6.50
2022-12-05T12:00:45.209Z,6.67
2022-12-05T12:03:42.547Z,6.66
2022-12-05T12:06:28.352Z,6.71
2022-12-05T12:09:30.334Z,6.74
2022-12-05T12:12:12.799Z,6.79
2022-12-05T12:14:53.406Z,6.70
2022-12-05T12:17:34.969Z,6.74
2022-12-05T12:20:30.949Z,6.80
2022-12-05T12:23:22.935Z,6.65
2022-12-05T12:26:10.031Z,6.50
2022-12-05T12:28:46.010Z,6.43
2022-12-05T12:32:02.798Z,6.48
2022-12-05T12:35:03.423Z,6.57
2022-12-05T12:37:43.391Z,6.74
2022-12-05T12:40:20.718Z,6.86
2022-12-05T12:43:07.398Z,6.98
2022-12-05T12:45:59.650Z,7.04
2022-12-05T12:48:52.863Z,7.08
2022-12-05T12:51:20.115Z,7.14
2022-12-05T12:54:10.162Z,7.15
2022-12-05T12:56:52.347Z,7.01
2022-12-05T12:59:44.708Z,7.09
2022-12-05T13:02:22.638Z,7.14
2022-12-05T13:04:58.958Z,7.15
2022-12-05T13:07:38.833Z,7.14
2022-12-05T13:10:20.189Z,7.22
2022-12-05T13:12:48.647Z,7.27
2022-12-05T13:15:24.085Z,7.31
2022-12-05T13:17:54.399Z,7.31
2022-12-05T13:20:30.535Z,7.33
2022-12-05T13:22:59.187Z,7.29
2022-12-05T13:25:35.224Z,7.25
2022-12-05T13:28:09.730Z,7.24
2022-12-05T13:30:36.638Z,7.23
2022-12-05T13:33:09.965Z,7.24
2022-12-05T13:35:40.040Z,7.20
2022-12-05T13:38:21.710Z,7.14
2022-12-05T13:40:53.365Z,7.12
2022-12-05T13:43:25.338Z,7.03
2022-12-05T13:46:06.774Z,7.03
2022-12-05T13:48:39.098Z,7.01
2022-12-05T13:51:14.246Z,6.94
2022-12-05T13:53:45.282Z,6.93
2022-12-05T13:56:27.956Z,6.95
2022-12-05T13:58:56.987Z,6.96
2022-12-05T14:01:53.732Z,6.94
2022-12-05T14:04:46.828Z,6.92
2022-12-05T14:07:41.305Z,6.91
2022-12-05T14:10:11.312Z,6.92
2022-12-05T14:12:56.454Z,6.95
2022-12-05T14:15:33.967Z,6.98
2022-12-05T14:18:10.998Z,6.97
2022-12-05T14:21:07.700Z,6.97
2022-12-05T14:24:02.703Z,6.89
2022-12-05T14:27:02.456Z,6.86
2022-12-05T14:29:39.652Z,6.84
2022-12-05T14:32:22.396Z,6.72
2022-12-05T14:35:03.833Z,6.69
2022-12-05T14:37:35.684Z,6.70
2022-12-05T14:40:20.854Z,6.75
2022-12-05T14:42:56.687Z,6.75
2022-12-05T14:45:31.923Z,6.72
2022-12-05T14:48:01.836Z,6.69
2022-12-05T14:50:44.552Z,6.64
2022-12-05T14:53:24.672Z,6.58
2022-12-05T14:56:03.323Z,6.58
2022-12-05T14:58:40.444Z,6.56
2022-12-05T15:01:14.915Z,6.52
2022-12-05T15:04:07.385Z,6.53
2022-12-05T15:06:45.166Z,6.45
2022-12-05T15:09:37.656Z,6.29
2022-12-05T15:12:16.758Z,6.20
2022-12-05T15:14:57.130Z,6.13
2022-12-05T15:17:34.595Z,6.14
2022-12-05T15:20:14.554Z,6.19
2022-12-05T15:22:41.727Z,6.23
2022-12-05T15:25:31.863Z,6.24
2022-12-05T15:28:06.720Z,6.25
2022-12-05T15:30:38.583Z,6.28
2022-12-05T15:33:12.400Z,6.30
2022-12-05T15:35:41.271Z,6.34
2022-12-05T15:38:27.309Z,6.35
2022-12-05T15:40:55.162Z,6.24
2022-12-05T15:43:30.535Z,6.31
2022-12-05T15:46:09.021Z,6.38
2022-12-05T15:48:35.987Z,6.43
2022-12-05T15:51:03.537Z,6.47
2022-12-05T15:53:37.038Z,6.52
2022-12-05T15:56:14.048Z,6.53
2022-12-05T15:58:48.409Z,6.48
2022-12-05T16:01:20.438Z,6.49
2022-12-05T16:03:54.460Z,6.51
2022-12-05T16:06:32.388Z,6.49
2022-12-05T16:09:08.757Z,6.48
2022-12-05T16:11:39.407Z,6.43
2022-12-05T16:14:08.466Z,6.41
2022-12-05T16:16:38.754Z,6.23
2022-12-05T16:19:15.471Z,6.07
2022-12-05T16:21:45.685Z,5.99
2022-12-05T16:24:19.697Z,6.07
2022-12-05T16:26:58.838Z,6.05
2022-12-05T16:29:30.081Z,5.86
2022-12-05T16:31:59.498Z,5.55
2022-12-05T16:34:29.584Z,5.40
2022-12-05T16:36:57.606Z,5.51
2022-12-05T16:39:27.840Z,5.62
2022-12-05T16:41:55.549Z,5.71
2022-12-05T16:45:01.075Z,5.75
2022-12-05T16:48:00.584Z,5.79
2022-12-05T16:50:32.651Z,5.81
2022-12-05T16:53:16.178Z,5.83
2022-12-05T16:55:45.098Z,5.80
2022-12-05T16:58:21.688Z,5.70
2022-12-05T17:00:50.765Z,5.65
2022-12-05T17:03:33.908Z,5.58
2022-12-05T17:06:01.645Z,5.44
2022-12-05T17:08:28.546Z,5.27
2022-12-05T17:10:57.024Z,5.08
2022-12-05T17:13:23.786Z,5.13
2022-12-05T17:15:52.003Z,5.07
2022-12-05T17:18:23.220Z,5.12
2022-12-05T17:20:57.334Z,5.25
2022-12-05T17:23:24.153Z,5.38
2022-12-05T17:25:53.576Z,5.48
2022-12-05T17:28:21.152Z,5.58
2022-12-05T17:30:48.320Z,5.67
2022-12-05T17:33:18.278Z,5.75
2022-12-05T17:35:45.807Z,5.80
2022-12-05T17:38:12.635Z,5.85
2022-12-05T17:40:40.173Z,5.85
2022-12-05T17:43:07.121Z,5.86
2022-12-05T17:45:33.866Z,5.88
2022-12-05T17:48:00.953Z,5.91
2022-12-05T17:50:29.358Z,5.93
2022-12-05T17:52:58.884Z,5.96
2022-12-05T17:55:29.461Z,5.97
2022-12-05T17:57:56.530Z,5.98
2022-12-05T18:00:24.978Z,5.99
2022-12-05T18:02:52.679Z,5.87
2022-12-05T18:05:19.972Z,5.76
2022-12-05T18:07:48.615Z,5.56
2022-12-05T18:10:20.907Z,5.58
2022-12-05T18:12:49.288Z,5.49
2022-12-05T18:15:17.144Z,5.56
2022-12-05T18:17:44.671Z,5.60
2022-12-05T18:20:15.463Z,5.66
2022-12-05T18:22:43.904Z,5.64
2022-12-05T18:25:12.195Z,5.61
2022-12-05T18:27:38.990Z,5.53
2022-12-05T18:30:07.790Z,5.57
2022-12-05T18:32:34.699Z,5.62
2022-12-05T18:35:02.140Z,5.64
2022-12-05T18:37:29.356Z,5.66
2022-12-05T18:39:56.524Z,5.63
2022-12-05T18:42:24.809Z,5.65
2022-12-05T18:44:51.633Z,5.68
2022-12-05T18:47:19.027Z,5.75
2022-12-05T18:49:46.072Z,5.81
2022-12-05T18:52:13.361Z,5.85
2022-12-05T18:54:40.262Z,5.90
2022-12-05T18:57:07.117Z,5.92
2022-12-05T18:59:35.553Z,5.63
2022-12-05T19:02:03.258Z,5.54
2022-12-05T19:04:30.722Z,5.45
2022-12-05T19:07:00.198Z,5.24
2022-12-05T19:09:30.520Z,5.16
2022-12-05T19:11:59.014Z,5.15
2022-12-05T19:14:28.186Z,5.10
2022-12-05T19:17:00.242Z,5.16
2022-12-05T19:19:29.377Z,5.29
2022-12-05T19:21:56.175Z,5.40
2022-12-05T19:24:23.543Z,5.45
2022-12-05T19:26:50.319Z,5.52
2022-12-05T19:29:17.526Z,5.59
2022-12-05T19:31:45.798Z,5.60
2022-12-05T19:34:14.223Z,5.54
2022-12-05T19:36:44.743Z,5.39
2022-12-05T19:39:16.733Z,5.39
2022-12-05T19:41:44.666Z,5.47
2022-12-05T19:44:12.634Z,5.40
2022-12-05T19:46:40.255Z,5.45
2022-12-05T19:49:11.094Z,5.38
2022-12-05T19:51:40.083Z,5.18
2022-12-05T19:54:08.589Z,5.23
2022-12-05T19:56:37.214Z,5.34
2022-12-05T19:59:05.971Z,5.43
2022-12-05T20:01:35.584Z,5.49
2022-12-05T20:04:07.086Z,5.56
2022-12-05T20:06:37.386Z,5.60
2022-12-05T20:09:07.782Z,5.61
2022-12-05T20:11:37.373Z,5.60
2022-12-05T20:14:04.636Z,5.44
2022-12-05T20:16:31.567Z,5.29
2022-12-05T20:18:59.155Z,5.26
2022-12-05T20:21:28.808Z,5.20
2022-12-05T20:23:56.532Z,5.03
2022-12-05T20:26:27.920Z,5.03
2022-12-05T20:28:56.402Z,4.97
2022-12-05T20:31:25.847Z,4.83
2022-12-05T20:33:54.249Z,4.75
2022-12-05T20:36:25.111Z,4.71
2022-12-05T20:38:56.080Z,4.66
2022-12-05T20:41:24.853Z,4.61
2022-12-05T20:43:55.791Z,4.67
2022-12-05T20:46:24.283Z,4.76
2022-12-05T20:48:52.431Z,4.70
2022-12-05T20:51:23.304Z,4.66
2022-12-05T20:53:51.054Z,4.72
2022-12-05T20:56:20.758Z,4.76
2022-12-05T20:58:52.036Z,4.84
2022-12-05T21:01:21.299Z,4.98
2022-12-05T21:03:50.284Z,5.04
2022-12-05T21:06:22.174Z,5.12
2022-12-05T21:08:50.328Z,5.21
2022-12-05T21:11:17.185Z,5.24
2022-12-05T21:13:44.860Z,5.23
2022-12-05T21:16:16.669Z,5.28
2022-12-05T21:18:44.789Z,5.34
2022-12-05T21:21:15.232Z,5.39
2022-12-05T21:23:42.270Z,5.38
2022-12-05T21:26:14.277Z,5.41
2022-12-05T21:28:42.952Z,5.36
2022-12-05T21:31:15.158Z,5.38
2022-12-05T21:33:46.427Z,5.39
2022-12-05T21:36:13.722Z,5.45
2022-12-05T21:38:40.746Z,5.44
2022-12-05T21:41:08.123Z,5.32
2022-12-05T21:43:36.175Z,5.27
2022-12-05T21:46:05.153Z,5.18
2022-12-05T21:48:34.465Z,5.14
2022-12-05T21:51:05.198Z,5.07
2022-12-05T21:53:32.308Z,5.16
2022-12-05T21:56:00.636Z,5.21
2022-12-05T21:58:30.317Z,5.24
2022-12-05T22:00:57.598Z,5.32
2022-12-05T22:03:24.355Z,5.26
2022-12-05T22:06:00.161Z,5.21
2022-12-05T22:08:29.161Z,5.27
2022-12-05T22:10:55.947Z,5.26
2022-12-05T22:13:22.775Z,5.08
2022-12-05T22:15:49.913Z,4.77
2022-12-05T22:18:16.677Z,4.82
2022-12-05T22:20:43.452Z,4.63
2022-12-05T22:23:16.630Z,4.60
2022-12-05T22:25:43.745Z,4.70
2022-12-05T22:28:10.454Z,4.78
2022-12-05T22:30:37.491Z,4.88
2022-12-05T22:33:04.392Z,4.98
2022-12-05T22:35:31.122Z,4.95
2022-12-05T22:37:57.927Z,4.94
2022-12-05T22:40:26.037Z,4.97
2022-12-05T22:42:53.145Z,4.84
2022-12-05T22:45:19.871Z,4.80
2022-12-05T22:47:46.669Z,4.85
2022-12-05T22:50:13.561Z,4.81
2022-12-05T22:52:40.339Z,4.89
2022-12-05T22:55:08.706Z,4.96
2022-12-05T22:57:37.008Z,4.92
2022-12-05T23:00:06.297Z,4.98
2022-12-05T23:02:33.118Z,5.05
2022-12-05T23:04:59.904Z,5.08
2022-12-05T23:07:26.865Z,5.05
2022-12-05T23:09:53.740Z,5.03
2022-12-05T23:12:20.504Z,5.04
2022-12-05T23:14:48.587Z,5.12
2022-12-05T23:17:15.334Z,5.02
2022-12-05T23:19:42.221Z,5.02
2022-12-05T23:22:08.946Z,4.96
2022-12-05T23:24:35.706Z,4.96
2022-12-05T23:27:02.500Z,4.96
2022-12-05T23:29:29.447Z,5.01
2022-12-05T23:31:57.551Z,5.04
2022-12-05T23:34:24.440Z,4.74
2022-12-05T23:36:51.202Z,4.73
2022-12-05T23:39:18.494Z,4.77
2022-12-05T23:41:45.298Z,4.68
2022-12-05T23:44:12.359Z,4.64
2022-12-05T23:46:39.231Z,4.55
2022-12-05T23:49:07.365Z,4.54
2022-12-05T23:51:34.516Z,4.67
2022-12-05T23:54:02.016Z,4.79
2022-12-05T23:56:32.357Z,4.86
2022-12-05T23:59:00.232Z,4.93
